createdAt,value
2019-01-21T00:00:42.685Z,102123.07
2019-01-21T00:03:14.653Z,102119.14
2019-01-21T00:05:42.126Z,102125.63
2019-01-21T00:08:11.748Z,102121.81
2019-01-21T00:10:40.341Z,102120.12
2019-01-21T00:13:08.843Z,102121.23
2019-01-21T00:15:37.462Z,102116.25
2019-01-21T00:18:06.110Z,102121.36
2019-01-21T00:20:34.737Z,102126.28
2019-01-21T00:23:04.965Z,102121.03
2019-01-21T00:25:33.612Z,102127.30
2019-01-21T00:28:02.195Z,102131.23
2019-01-21T00:30:30.818Z,102129.17
2019-01-21T00:32:59.437Z,102131.25
2019-01-21T00:35:28.005Z,102123.84
2019-01-21T00:37:56.607Z,102117.94
2019-01-21T00:40:25.252Z,102120.98
2019-01-21T00:42:53.771Z,102122.16
2019-01-21T00:45:22.392Z,102124.81
2019-01-21T00:47:50.978Z,102125.17
2019-01-21T00:50:19.583Z,102126.89
2019-01-21T00:52:48.187Z,102124.97
2019-01-21T00:55:16.796Z,102122.44
2019-01-21T00:57:45.375Z,102115.06
2019-01-21T01:00:17.085Z,102127.63
2019-01-21T01:02:45.677Z,102132.66
2019-01-21T01:05:14.486Z,102130.35
2019-01-21T01:07:43.552Z,102125.43
2019-01-21T01:10:13.511Z,102124.52
2019-01-21T01:12:42.579Z,102125.33
2019-01-21T01:15:13.179Z,102125.05
2019-01-21T01:17:42.704Z,102128.90
2019-01-21T01:20:19.270Z,102137.38
2019-01-21T01:22:47.947Z,102142.70
2019-01-21T01:25:16.553Z,102137.95
2019-01-21T01:27:45.178Z,102151.62
2019-01-21T01:30:15.868Z,102149.58
2019-01-21T01:32:44.483Z,102151.42
2019-01-21T01:35:14.682Z,102154.44
2019-01-21T01:37:43.702Z,102159.43
2019-01-21T01:40:15.122Z,102159.43
2019-01-21T01:42:43.828Z,102157.43
2019-01-21T01:45:21.312Z,102159.69
2019-01-21T01:47:53.225Z,102170.48
2019-01-21T01:50:21.821Z,102174.53
2019-01-21T01:52:50.367Z,102180.91
2019-01-21T01:55:20.429Z,102184.09
2019-01-21T01:57:49.742Z,102192.03
2019-01-21T02:00:18.544Z,102181.04
2019-01-21T02:02:47.141Z,102187.80
2019-01-21T02:05:15.788Z,102189.53
2019-01-21T02:07:44.308Z,102185.23
2019-01-21T02:10:14.782Z,102185.23
2019-01-21T02:12:43.535Z,102184.33
2019-01-21T02:15:16.592Z,102185.39
2019-01-21T02:17:51.824Z,102183.59
2019-01-21T02:20:17.323Z,102186.63
2019-01-21T02:22:48.352Z,102185.52
2019-01-21T02:25:17.357Z,102178.44
2019-01-21T02:28:14.183Z,102177.36
2019-01-21T02:31:01.640Z,102180.02
2019-01-21T02:34:07.572Z,102182.92
2019-01-21T02:36:47.812Z,102177.64
2019-01-21T02:39:19.428Z,102181.94
2019-01-21T02:41:48.126Z,102179.17
2019-01-21T02:44:27.744Z,102179.34
2019-01-21T02:47:10.984Z,102180.33
2019-01-21T02:50:00.020Z,102175.45
2019-01-21T02:52:50.582Z,102178.36
2019-01-21T02:55:22.062Z,102173.91
2019-01-21T02:58:09.971Z,102179.27
2019-01-21T03:01:08.469Z,102179.69
2019-01-21T03:03:39.988Z,102174.12
2019-01-21T03:06:26.443Z,102168.41
2019-01-21T03:09:09.595Z,102172.89
2019-01-21T03:11:43.862Z,102173.08
2019-01-21T03:14:18.029Z,102175.86
2019-01-21T03:17:11.710Z,102172.89
2019-01-21T03:19:55.231Z,102171.06
2019-01-21T03:22:43.384Z,102163.77
2019-01-21T03:25:17.475Z,102164.11
2019-01-21T03:28:14.537Z,102160.05
2019-01-21T03:31:02.185Z,102161.44
2019-01-21T03:33:49.567Z,102150.99
2019-01-21T03:36:24.021Z,102156.17
2019-01-21T03:39:01.265Z,102156.06
2019-01-21T03:41:38.289Z,102160.97
2019-01-21T03:44:21.724Z,102154.30
2019-01-21T03:46:53.409Z,102154.52
2019-01-21T03:49:30.821Z,102149.16
2019-01-21T03:52:19.583Z,102153.82
2019-01-21T03:54:49.537Z,102160.77
2019-01-21T03:57:21.060Z,102163.00
2019-01-21T04:00:08.620Z,102165.75
2019-01-21T04:02:49.089Z,102162.58
2019-01-21T04:05:26.499Z,102155.95
2019-01-21T04:08:09.648Z,102159.55
2019-01-21T04:10:52.947Z,102166.58
2019-01-21T04:13:24.471Z,102164.34
2019-01-21T04:16:16.984Z,102159.30
2019-01-21T04:19:10.120Z,102163.36
2019-01-21T04:21:44.333Z,102157.55
2019-01-21T04:24:18.944Z,102159.83
2019-01-21T04:26:56.265Z,102163.02
2019-01-21T04:30:00.428Z,102156.45
2019-01-21T04:32:53.159Z,102159.70
2019-01-21T04:35:33.546Z,102164.66
2019-01-21T04:38:34.902Z,102164.34
2019-01-21T04:41:06.391Z,102165.83
2019-01-21T04:43:49.920Z,102162.95
2019-01-21T04:46:21.457Z,102163.39
2019-01-21T04:48:56.060Z,102164.69
2019-01-21T04:51:27.784Z,102168.91
2019-01-21T04:54:21.907Z,102168.59
2019-01-21T04:57:05.212Z,102162.28
2019-01-21T05:00:03.350Z,102164.03
2019-01-21T05:03:00.276Z,102159.42
2019-01-21T05:05:34.780Z,102161.62
2019-01-21T05:08:09.248Z,102154.02
2019-01-21T05:10:49.848Z,102150.34
2019-01-21T05:13:46.447Z,102157.23
2019-01-21T05:16:52.648Z,102162.38
2019-01-21T05:19:27.099Z,102166.99
2019-01-21T05:22:21.176Z,102162.06
2019-01-21T05:25:04.661Z,102161.78
2019-01-21T05:27:48.152Z,102164.81
2019-01-21T05:30:31.337Z,102162.45
2019-01-21T05:33:14.762Z,102168.91
2019-01-21T05:36:19.340Z,102161.66
2019-01-21T05:38:56.018Z,102156.17
2019-01-21T05:41:42.694Z,102149.35
2019-01-21T05:44:23.027Z,102146.95
2019-01-21T05:47:06.539Z,102144.93
2019-01-21T05:50:11.089Z,102149.00
2019-01-21T05:53:16.879Z,102153.89
2019-01-21T05:56:04.762Z,102155.55
2019-01-21T05:58:45.224Z,102152.50
2019-01-21T06:01:36.116Z,102153.06
2019-01-21T06:04:13.432Z,102158.69
2019-01-21T06:06:47.931Z,102158.69
2019-01-21T06:09:22.871Z,102160.86
2019-01-21T06:12:06.098Z,102162.88
2019-01-21T06:14:46.706Z,102170.84
2019-01-21T06:17:21.037Z,102165.35
2019-01-21T06:20:25.438Z,102171.38
2019-01-21T06:23:14.921Z,102177.76
2019-01-21T06:25:55.366Z,102179.68
2019-01-21T06:28:41.792Z,102178.27
2019-01-21T06:31:16.171Z,102174.53
2019-01-21T06:34:20.771Z,102172.03
2019-01-21T06:36:52.303Z,102168.87
2019-01-21T06:39:49.111Z,102175.62
2019-01-21T06:42:29.256Z,102183.27
2019-01-21T06:45:03.398Z,102179.91
2019-01-21T06:48:07.696Z,102172.34
2019-01-21T06:50:51.035Z,102172.86
2019-01-21T06:53:28.531Z,102180.35
2019-01-21T06:56:14.816Z,102183.98
2019-01-21T06:58:52.200Z,102180.98
2019-01-21T07:01:23.697Z,102179.34
2019-01-21T07:04:28.167Z,102191.20
2019-01-21T07:07:17.655Z,102191.20
2019-01-21T07:10:01.097Z,102195.59
2019-01-21T07:12:38.317Z,102193.66
2019-01-21T07:15:15.786Z,102206.66
2019-01-21T07:18:20.225Z,102204.78
2019-01-21T07:20:51.721Z,102204.53
2019-01-21T07:23:32.001Z,102207.78
2019-01-21T07:26:09.289Z,102212.55
2019-01-21T07:29:01.770Z,102212.31
2019-01-21T07:31:36.004Z,102217.03
2019-01-21T07:34:16.430Z,102217.62
2019-01-21T07:37:05.893Z,102227.66
2019-01-21T07:39:49.333Z,102229.87
2019-01-21T07:42:30.201Z,102235.38
2019-01-21T07:45:13.707Z,102228.55
2019-01-21T07:47:47.901Z,102227.47
2019-01-21T07:50:22.361Z,102221.23
2019-01-21T07:53:13.257Z,102231.30
2019-01-21T07:56:01.341Z,102221.81
2019-01-21T07:58:52.346Z,102225.33
2019-01-21T08:01:29.484Z,102233.94
2019-01-21T08:04:20.557Z,102233.93
2019-01-21T08:07:14.061Z,102235.59
2019-01-21T08:09:57.591Z,102239.36
2019-01-21T08:12:40.780Z,102249.05
2019-01-21T08:15:14.932Z,102254.32
2019-01-21T08:18:03.976Z,102264.68
2019-01-21T08:20:44.256Z,102252.73
2019-01-21T08:23:18.447Z,102257.06
2019-01-21T08:26:05.082Z,102272.77
2019-01-21T08:28:48.274Z,102270.03
2019-01-21T08:31:25.791Z,102271.72
2019-01-21T08:34:21.014Z,102274.20
2019-01-21T08:37:01.148Z,102279.34
2019-01-21T08:39:50.604Z,102276.45
2019-01-21T08:42:51.916Z,102265.64
2019-01-21T08:45:41.280Z,102266.27
2019-01-21T08:48:21.371Z,102264.40
2019-01-21T08:50:58.760Z,102259.44
2019-01-21T08:53:42.227Z,102263.58
2019-01-21T08:56:19.015Z,102260.63
2019-01-21T08:58:59.134Z,102258.13
2019-01-21T09:02:02.045Z,102256.98
2019-01-21T09:04:48.217Z,102255.70
2019-01-21T09:07:19.772Z,102261.31
2019-01-21T09:09:56.895Z,102258.95
2019-01-21T09:12:37.003Z,102261.45
2019-01-21T09:15:14.066Z,102256.63
2019-01-21T09:17:54.257Z,102254.11
2019-01-21T09:20:37.797Z,102256.91
2019-01-21T09:23:23.995Z,102253.77
2019-01-21T09:26:10.726Z,102248.75
2019-01-21T09:28:50.893Z,102258.61
2019-01-21T09:31:45.479Z,102247.30
2019-01-21T09:34:28.960Z,102242.55
2019-01-21T09:37:21.491Z,102245.41
2019-01-21T09:40:15.835Z,102246.87
2019-01-21T09:43:02.016Z,102259.48
2019-01-21T09:45:51.231Z,102268.33
2019-01-21T09:48:18.931Z,102266.05
2019-01-21T09:50:47.561Z,102267.05
2019-01-21T09:53:16.187Z,102265.36
2019-01-21T09:55:47.736Z,102262.64
2019-01-21T09:58:16.667Z,102266.19
2019-01-21T10:00:45.307Z,102272.16
2019-01-21T10:03:14.001Z,102262.50
2019-01-21T10:05:45.554Z,102257.92
2019-01-21T10:08:19.834Z,102260.15
2019-01-21T10:11:09.441Z,102257.69
2019-01-21T10:13:56.238Z,102257.38
2019-01-21T10:16:33.796Z,102255.62
2019-01-21T10:19:24.833Z,102254.17
2019-01-21T10:22:11.051Z,102251.09
2019-01-21T10:25:14.103Z,102246.34
2019-01-21T10:28:14.026Z,102243.41
2019-01-21T10:30:51.430Z,102234.20
2019-01-21T10:33:47.579Z,102228.75
2019-01-21T10:36:31.006Z,102224.56
2019-01-21T10:39:20.202Z,102220.42
2019-01-21T10:41:54.673Z,102212.76
2019-01-21T10:44:37.676Z,102211.38
2019-01-21T10:47:27.027Z,102207.35
2019-01-21T10:50:20.702Z,102206.82
2019-01-21T10:52:54.781Z,102203.83
2019-01-21T10:55:40.990Z,102203.61
2019-01-21T10:58:27.436Z,102203.31
2019-01-21T11:01:13.604Z,102205.38
2019-01-21T11:04:07.393Z,102194.09
2019-01-21T11:06:58.049Z,102174.58
2019-01-21T11:09:53.326Z,102174.58
2019-01-21T11:12:24.865Z,102173.29
2019-01-21T11:15:02.032Z,102177.15
2019-01-21T11:17:39.140Z,102172.39
2019-01-21T11:20:19.591Z,102175.91
2019-01-21T11:23:00.145Z,102171.74
2019-01-21T11:25:58.567Z,102170.56
2019-01-21T11:28:30.091Z,102169.23
2019-01-21T11:31:16.486Z,102165.05
2019-01-21T11:34:02.993Z,102163.55
2019-01-21T11:36:34.486Z,102155.52
2019-01-21T11:39:18.531Z,102158.66
2019-01-21T11:42:02.168Z,102153.59
2019-01-21T11:44:48.773Z,102154.36
2019-01-21T11:47:23.020Z,102154.20
2019-01-21T11:50:00.554Z,102145.55
2019-01-21T11:52:37.790Z,102157.60
2019-01-21T11:55:29.568Z,102148.41
2019-01-21T11:58:23.242Z,102150.77
2019-01-21T12:01:17.333Z,102140.89
2019-01-21T12:04:09.492Z,102138.80
2019-01-21T12:06:41.020Z,102133.17
2019-01-21T12:09:15.415Z,102133.64
2019-01-21T12:11:46.946Z,102126.44
2019-01-21T12:14:18.433Z,102132.64
2019-01-21T12:17:16.664Z,102124.08
2019-01-21T12:19:54.114Z,102121.08
2019-01-21T12:22:45.001Z,102120.65
2019-01-21T12:25:28.185Z,102109.02
2019-01-21T12:28:02.307Z,102107.02
2019-01-21T12:30:50.090Z,102108.68
2019-01-21T12:33:48.610Z,102099.37
2019-01-21T12:36:20.145Z,102089.11
2019-01-21T12:39:04.047Z,102090.35
2019-01-21T12:41:50.270Z,102087.81
2019-01-21T12:44:38.248Z,102086.42
2019-01-21T12:47:30.632Z,102089.72
2019-01-21T12:50:33.539Z,102081.09
2019-01-21T12:53:07.600Z,102082.78
2019-01-21T12:55:50.713Z,102081.27
2019-01-21T12:58:22.209Z,102084.48
2019-01-21T13:00:56.343Z,102088.58
2019-01-21T13:03:51.830Z,102094.37
2019-01-21T13:06:42.864Z,102089.66
2019-01-21T13:09:17.260Z,102088.48
2019-01-21T13:11:54.367Z,102085.19
2019-01-21T13:14:40.726Z,102076.64
2019-01-21T13:17:12.210Z,102068.59
2019-01-21T13:20:00.342Z,102067.55
2019-01-21T13:22:43.496Z,102065.11
2019-01-21T13:25:20.846Z,102062.12
2019-01-21T13:28:10.631Z,102052.23
2019-01-21T13:31:12.368Z,102049.33
2019-01-21T13:33:55.805Z,102040.27
2019-01-21T13:36:51.294Z,102040.36
2019-01-21T13:39:43.864Z,102037.76
2019-01-21T13:42:15.399Z,102034.45
2019-01-21T13:45:03.075Z,102030.95
2019-01-21T13:47:53.688Z,102017.81
2019-01-21T13:50:43.330Z,102017.66
2019-01-21T13:53:47.900Z,102018.91
2019-01-21T13:56:36.880Z,102019.60
2019-01-21T13:59:26.431Z,102017.65
2019-01-21T14:02:09.758Z,102002.41
2019-01-21T14:04:41.253Z,101999.03
2019-01-21T14:07:21.734Z,101991.87
2019-01-21T14:10:07.858Z,101988.54
2019-01-21T14:12:42.105Z,101984.19
2019-01-21T14:15:49.791Z,101980.11
2019-01-21T14:18:27.330Z,101965.80
2019-01-21T14:21:04.471Z,101968.16
2019-01-21T14:23:47.660Z,101957.00
2019-01-21T14:26:24.786Z,101956.45
2019-01-21T14:29:08.659Z,101958.26
2019-01-21T14:31:42.990Z,101954.21
2019-01-21T14:34:17.475Z,101959.96
2019-01-21T14:37:00.870Z,101959.58
2019-01-21T14:39:32.477Z,101961.06
2019-01-21T14:42:06.908Z,101963.27
2019-01-21T14:44:57.838Z,101956.08
2019-01-21T14:47:32.042Z,101954.39
2019-01-21T14:50:21.384Z,101961.58
2019-01-21T14:52:58.690Z,101957.28
2019-01-21T14:56:03.104Z,101954.37
2019-01-21T14:58:46.350Z,101953.55
2019-01-21T15:01:20.766Z,101949.44
2019-01-21T15:03:52.333Z,101952.07
2019-01-21T15:06:32.766Z,101942.75
2019-01-21T15:09:19.341Z,101952.06
2019-01-21T15:11:59.439Z,101946.06
2019-01-21T15:14:59.639Z,101946.06
2019-01-21T15:17:39.961Z,101949.31
2019-01-21T15:20:11.534Z,101950.97
2019-01-21T15:22:51.483Z,101959.58
2019-01-21T15:25:25.948Z,101957.64
2019-01-21T15:28:12.349Z,101963.89
2019-01-21T15:31:04.601Z,101976.81
2019-01-21T15:33:55.455Z,101972.46
2019-01-21T15:36:47.269Z,101971.70
2019-01-21T15:39:24.875Z,101967.73
2019-01-21T15:42:29.261Z,101967.82
2019-01-21T15:45:15.101Z,101965.16
2019-01-21T15:47:49.423Z,101958.78
2019-01-21T15:50:27.033Z,101958.70
2019-01-21T15:53:01.497Z,101959.75
2019-01-21T15:55:38.881Z,101953.30
2019-01-21T15:58:18.943Z,101949.83
2019-01-21T16:01:13.292Z,101946.27
2019-01-21T16:03:53.807Z,101947.56
2019-01-21T16:06:34.331Z,101944.88
2019-01-21T16:09:25.420Z,101946.94
2019-01-21T16:11:56.918Z,101938.48
2019-01-21T16:14:28.425Z,101935.80
2019-01-21T16:17:23.924Z,101932.58
2019-01-21T16:19:52.650Z,101929.60
2019-01-21T16:22:51.155Z,101923.39
2019-01-21T16:25:25.553Z,101923.05
2019-01-21T16:28:11.931Z,101926.31
2019-01-21T16:31:01.497Z,101917.38
2019-01-21T16:33:47.655Z,101922.91
2019-01-21T16:36:21.715Z,101920.39
2019-01-21T16:38:53.554Z,101916.11
2019-01-21T16:41:27.796Z,101918.61
2019-01-21T16:43:56.309Z,101919.11
2019-01-21T16:46:25.876Z,101916.62
2019-01-21T16:48:54.431Z,101915.67
2019-01-21T16:51:23.058Z,101921.31
2019-01-21T16:53:51.756Z,101921.73
2019-01-21T16:56:20.395Z,101921.97
2019-01-21T16:58:48.934Z,101921.51
2019-01-21T17:01:17.526Z,101917.01
2019-01-21T17:03:46.324Z,101913.31
2019-01-21T17:06:14.935Z,101909.41
2019-01-21T17:08:43.567Z,101912.75
2019-01-21T17:11:12.194Z,101905.39
2019-01-21T17:13:40.834Z,101906.45
2019-01-21T17:16:09.479Z,101900.94
2019-01-21T17:18:38.073Z,101900.08
2019-01-21T17:21:06.635Z,101900.31
2019-01-21T17:23:35.284Z,101898.50
2019-01-21T17:26:03.870Z,101896.53
2019-01-21T17:28:32.501Z,101902.56
2019-01-21T17:31:01.170Z,101891.84
2019-01-21T17:33:29.605Z,101893.95
2019-01-21T17:35:58.234Z,101891.30
2019-01-21T17:38:26.881Z,101890.17
2019-01-21T17:40:55.590Z,101887.94
2019-01-21T17:43:24.186Z,101884.08
2019-01-21T17:45:52.758Z,101887.52
2019-01-21T17:48:21.342Z,101886.67
2019-01-21T17:50:49.963Z,101875.66
2019-01-21T17:53:18.591Z,101870.66
2019-01-21T17:55:47.129Z,101874.25
2019-01-21T17:58:15.652Z,101875.59
2019-01-21T18:00:44.256Z,101875.59
2019-01-21T18:03:12.873Z,101871.47
2019-01-21T18:05:41.505Z,101880.23
2019-01-21T18:08:10.099Z,101880.98
2019-01-21T18:10:38.734Z,101883.92
2019-01-21T18:13:07.265Z,101883.02
2019-01-21T18:15:35.860Z,101886.20
2019-01-21T18:18:04.691Z,101879.02
2019-01-21T18:20:33.202Z,101874.45
2019-01-21T18:23:01.851Z,101864.97
2019-01-21T18:25:30.441Z,101874.88
2019-01-21T18:27:59.069Z,101881.22
2019-01-21T18:30:28.079Z,101882.22
2019-01-21T18:32:57.555Z,101873.16
2019-01-21T18:35:26.146Z,101878.78
2019-01-21T18:37:54.942Z,101878.08
2019-01-21T18:40:23.547Z,101882.64
2019-01-21T18:42:52.175Z,101880.04
2019-01-21T18:45:25.604Z,101877.28
2019-01-21T18:47:54.267Z,101874.41
2019-01-21T18:50:22.878Z,101876.23
2019-01-21T18:52:51.838Z,101871.14
2019-01-21T18:55:20.418Z,101868.58
2019-01-21T18:57:49.062Z,101864.55
2019-01-21T19:00:22.924Z,101864.42
2019-01-21T19:02:51.514Z,101859.58
2019-01-21T19:05:20.132Z,101855.55
2019-01-21T19:07:48.819Z,101852.06
2019-01-21T19:10:19.283Z,101836.25
2019-01-21T19:12:47.832Z,101839.83
2019-01-21T19:15:19.063Z,101839.77
2019-01-21T19:17:48.002Z,101839.00
2019-01-21T19:20:16.901Z,101841.50
2019-01-21T19:22:45.491Z,101843.44
2019-01-21T19:25:14.132Z,101844.06
2019-01-21T19:27:42.706Z,101850.39
2019-01-21T19:30:14.211Z,101841.19
2019-01-21T19:32:42.815Z,101838.82
2019-01-21T19:35:14.451Z,101841.75
2019-01-21T19:37:43.079Z,101844.80
2019-01-21T19:40:15.090Z,101834.05
2019-01-21T19:42:43.808Z,101830.37
2019-01-21T19:45:12.894Z,101823.34
2019-01-21T19:47:41.515Z,101822.19
2019-01-21T19:50:21.438Z,101831.11
2019-01-21T19:52:49.985Z,101824.88
2019-01-21T19:55:24.258Z,101827.52
2019-01-21T19:57:52.894Z,101822.55
2019-01-21T20:00:24.986Z,101830.20
2019-01-21T20:02:53.731Z,101820.33
2019-01-21T20:05:22.363Z,101822.82
2019-01-21T20:07:50.942Z,101811.65
2019-01-21T20:10:21.395Z,101813.75
2019-01-21T20:12:50.166Z,101809.56
2019-01-21T20:15:19.303Z,101810.25
2019-01-21T20:17:48.082Z,101811.15
2019-01-21T20:20:19.603Z,101804.32
2019-01-21T20:22:48.236Z,101804.26
2019-01-21T20:25:16.828Z,101804.93
2019-01-21T20:27:45.497Z,101805.95
2019-01-21T20:30:22.261Z,101805.15
2019-01-21T20:32:50.883Z,101798.61
2019-01-21T20:35:19.617Z,101805.63
2019-01-21T20:37:48.279Z,101798.22
2019-01-21T20:40:22.099Z,101795.16
2019-01-21T20:42:50.640Z,101794.52
2019-01-21T20:45:19.247Z,101783.05
2019-01-21T20:47:47.855Z,101783.44
2019-01-21T20:50:19.025Z,101781.06
2019-01-21T20:52:47.616Z,101776.91
2019-01-21T20:55:17.161Z,101776.11
2019-01-21T20:57:45.719Z,101776.37
2019-01-21T21:00:19.754Z,101772.33
2019-01-21T21:02:51.984Z,101773.74
2019-01-21T21:05:20.633Z,101776.83
2019-01-21T21:07:49.227Z,101777.75
2019-01-21T21:10:17.931Z,101775.23
2019-01-21T21:12:46.559Z,101775.42
2019-01-21T21:15:26.855Z,101779.36
2019-01-21T21:17:55.404Z,101776.75
2019-01-21T21:20:23.926Z,101768.38
2019-01-21T21:22:52.500Z,101769.90
2019-01-21T21:25:21.273Z,101766.89
2019-01-21T21:27:49.718Z,101761.89
2019-01-21T21:30:26.640Z,101757.06
2019-01-21T21:32:55.166Z,101753.28
2019-01-21T21:35:24.068Z,101757.58
2019-01-21T21:37:52.516Z,101754.09
2019-01-21T21:40:22.477Z,101752.64
2019-01-21T21:42:51.011Z,101747.96
2019-01-21T21:45:21.154Z,101749.22
2019-01-21T21:47:50.009Z,101752.16
2019-01-21T21:50:20.922Z,101740.12
2019-01-21T21:52:49.460Z,101741.86
2019-01-21T21:55:18.079Z,101736.41
2019-01-21T21:57:46.742Z,101730.78
2019-01-21T22:00:18.300Z,101735.48
2019-01-21T22:02:46.792Z,101722.06
2019-01-21T22:05:15.506Z,101718.22
2019-01-21T22:07:44.112Z,101723.62
2019-01-21T22:10:19.796Z,101720.47
2019-01-21T22:12:48.064Z,101717.45
2019-01-21T22:15:18.673Z,101713.44
2019-01-21T22:17:47.207Z,101713.09
2019-01-21T22:20:17.738Z,101710.95
2019-01-21T22:22:46.369Z,101714.27
2019-01-21T22:25:15.001Z,101710.25
2019-01-21T22:27:43.583Z,101708.44
2019-01-21T22:30:17.476Z,101702.02
2019-01-21T22:32:46.042Z,101698.08
2019-01-21T22:35:14.742Z,101687.63
2019-01-21T22:37:43.440Z,101677.80
2019-01-21T22:40:17.071Z,101679.91
2019-01-21T22:42:45.676Z,101678.49
2019-01-21T22:45:15.362Z,101675.27
2019-01-21T22:47:43.983Z,101670.68
2019-01-21T22:50:14.333Z,101667.09
2019-01-21T22:52:42.922Z,101662.61
2019-01-21T22:55:13.053Z,101662.61
2019-01-21T22:57:41.631Z,101665.70
2019-01-21T23:00:32.651Z,101668.56
2019-01-21T23:03:01.523Z,101664.80
2019-01-21T23:05:30.128Z,101670.11
2019-01-21T23:07:58.744Z,101662.72
2019-01-21T23:10:27.395Z,101655.95
2019-01-21T23:12:56.378Z,101655.06
2019-01-21T23:15:25.052Z,101644.89
2019-01-21T23:17:53.669Z,101647.59
2019-01-21T23:20:22.268Z,101643.84
2019-01-21T23:22:50.856Z,101641.22
2019-01-21T23:25:21.025Z,101635.42
2019-01-21T23:27:49.623Z,101624.80
2019-01-21T23:30:20.727Z,101623.76
2019-01-21T23:32:49.314Z,101615.30
2019-01-21T23:35:18.186Z,101605.42
2019-01-21T23:37:46.864Z,101601.49
2019-01-21T23:40:15.784Z,101592.63
2019-01-21T23:42:44.394Z,101595.52
2019-01-21T23:45:13.315Z,101587.48
2019-01-21T23:47:41.899Z,101577.69
2019-01-21T23:50:12.747Z,101571.03
2019-01-21T23:52:41.622Z,101570.03
2019-01-21T23:55:11.504Z,101567.02
2019-01-21T23:57:40.144Z,101567.05
